Chamnesstown, Illinois
Current Conditions -  °F | °C
As of 9:52 AM on Saturday 20 Dec 2014 (Local Time) from KMDH Reporting Station
Overcast Overcast  
Wind Chill: 32°   Ceiling: 3900
Heat Index: 36°   Visibility: 10mi
Dew Point: 28°   Wind: 5mph
Humidity: 73%   Direction: 130°SE
Pressure: 30.31"   Gusts: NA
Location:  37.907°N, 89.2086°W
Report Text: KMDH 201552Z AUTO 13004KT 10SM OVC039 02/M02 A3031 RMK AO2 SLP267 T00221022
Loading
Personal Weather Stations






























Interactive Weather Map New forecast layout! Learn more

10-Day Weather Forecast

Advertisements
Track Severe Weather on mobile